createdAt,value
2023-04-17T00:00:01.262Z,83.3
2023-04-17T00:10:01.493Z,83.1
2023-04-17T00:15:01.454Z,83.0
2023-04-17T00:20:02.385Z,84.8
2023-04-17T00:25:01.444Z,84.1
2023-04-17T00:30:01.397Z,88.0
2023-04-17T00:35:01.576Z,87.6
2023-04-17T00:45:01.368Z,88.0
2023-04-17T00:50:01.297Z,88.6
2023-04-17T00:55:01.420Z,87.3
2023-04-17T01:00:01.286Z,87.5
2023-04-17T01:05:06.389Z,99.4
2023-04-17T01:10:01.304Z,105.7
2023-04-17T01:15:01.441Z,112.0
2023-04-17T01:20:01.385Z,123.8
2023-04-17T01:25:01.470Z,132.7
2023-04-17T01:30:06.395Z,121.6
2023-04-17T01:35:01.381Z,115.0
2023-04-17T01:40:01.357Z,106.8
2023-04-17T01:45:01.469Z,95.6
2023-04-17T01:55:01.446Z,86.4
2023-04-17T02:00:01.455Z,95.8
2023-04-17T02:05:01.404Z,107.0
2023-04-17T02:10:01.255Z,119.8
2023-04-17T02:15:02.349Z,129.1
2023-04-17T02:20:01.328Z,125.7
2023-04-17T02:25:02.372Z,115.7
2023-04-17T02:30:01.312Z,106.4
2023-04-17T02:35:01.455Z,95.0
2023-04-17T02:40:01.346Z,82.8
2023-04-17T02:45:01.416Z,82.3
2023-04-17T02:50:01.330Z,81.4
2023-04-17T02:55:01.380Z,77.8
2023-04-17T03:00:01.253Z,74.4
2023-04-17T03:10:01.436Z,75.9
2023-04-17T03:15:01.445Z,76.5
2023-04-17T03:20:01.310Z,81.2
2023-04-17T03:30:01.339Z,85.6
2023-04-17T03:35:01.486Z,84.4
2023-04-17T03:40:01.373Z,93.7
2023-04-17T03:45:06.474Z,96.2
2023-04-17T03:50:02.428Z,99.5
2023-04-17T03:55:06.503Z,105.5
2023-04-17T04:00:01.353Z,110.4
2023-04-17T04:05:01.532Z,109.2
2023-04-17T04:10:01.345Z,107.7
2023-04-17T04:20:01.326Z,92.7
2023-04-17T04:25:01.422Z,86.9
2023-04-17T04:30:01.343Z,85.4
2023-04-17T04:35:01.399Z,80.3
2023-04-17T04:40:01.995Z,83.2
2023-04-17T04:45:01.547Z,85.8
2023-04-17T04:50:01.318Z,86.4
2023-04-17T04:55:01.462Z,80.6
2023-04-17T05:00:01.398Z,82.5
2023-04-17T05:05:01.771Z,82.1
2023-04-17T05:15:01.405Z,78.8
2023-04-17T05:20:02.308Z,78.8
2023-04-17T05:25:06.491Z,79.3
2023-04-17T05:35:06.518Z,85.7
2023-04-17T05:40:01.389Z,94.3
2023-04-17T05:45:11.392Z,112.4
2023-04-17T05:50:01.335Z,122.5
2023-04-17T06:00:01.300Z,138.1
2023-04-17T06:05:02.108Z,134.4
2023-04-17T06:10:01.323Z,130.0
2023-04-17T06:35:01.517Z,149.7
2023-04-17T06:40:01.321Z,158.2
2023-04-17T06:50:01.392Z,173.1
2023-04-17T06:55:01.468Z,182.9
2023-04-17T07:00:01.356Z,182.7
2023-04-17T07:05:01.481Z,183.4
2023-04-17T07:15:01.566Z,180.9
2023-04-17T07:20:06.307Z,173.1
2023-04-17T07:25:01.496Z,162.4
2023-04-17T07:35:07.072Z,149.4
2023-04-17T07:40:01.385Z,148.8
2023-04-17T07:55:02.543Z,203.0
2023-04-17T08:00:01.436Z,208.6
2023-04-17T08:05:01.924Z,207.5
2023-04-17T08:10:01.349Z,210.0
2023-04-17T08:20:01.875Z,209.9
2023-04-17T08:25:01.694Z,161.4
2023-04-17T08:30:01.471Z,157.2
2023-04-17T08:35:01.570Z,158.8
2023-04-17T08:40:06.421Z,165.0
2023-04-17T08:50:01.480Z,163.6
2023-04-17T08:55:01.422Z,168.5
2023-04-17T09:00:01.365Z,169.8
2023-04-17T09:10:01.329Z,179.3
2023-04-17T09:20:01.361Z,193.2
2023-04-17T09:25:01.561Z,193.4
2023-04-17T09:30:06.340Z,193.2
2023-04-17T09:35:01.684Z,185.1
2023-04-17T09:40:01.333Z,180.5
2023-04-17T09:45:06.378Z,182.7
2023-04-17T10:05:06.576Z,112.8
2023-04-17T10:10:06.406Z,102.3
2023-04-17T10:15:01.471Z,88.7
2023-04-17T10:20:01.829Z,80.4
2023-04-17T10:35:02.082Z,72.6
2023-04-17T10:55:01.435Z,78.4
2023-04-17T11:00:01.272Z,74.8
2023-04-17T11:05:01.381Z,73.7
2023-04-17T11:10:01.261Z,73.9
2023-04-17T11:15:01.454Z,79.8
2023-04-17T11:20:01.277Z,79.0
2023-04-17T11:25:01.453Z,79.4
2023-04-17T11:30:01.298Z,80.2
2023-04-17T11:35:01.392Z,81.0
2023-04-17T11:40:01.525Z,75.1
2023-04-17T11:45:04.585Z,75.2
2023-04-17T11:50:01.318Z,75.2
2023-04-17T11:55:01.478Z,75.1
2023-04-17T12:00:01.340Z,74.6
2023-04-17T12:05:01.770Z,76.2
2023-04-17T12:25:02.255Z,90.4
2023-04-17T12:35:06.229Z,87.9
2023-04-17T12:40:01.131Z,92.9
2023-04-17T12:50:01.133Z,88.8
2023-04-17T12:55:01.255Z,86.4
2023-04-17T13:00:01.129Z,87.9
2023-04-17T13:05:06.264Z,82.1
2023-04-17T13:10:01.149Z,84.1
2023-04-17T13:15:02.289Z,80.7
2023-04-17T13:20:01.130Z,81.8
2023-04-17T13:25:01.193Z,85.6
2023-04-17T13:30:01.228Z,93.6
2023-04-17T13:35:01.193Z,86.1
2023-04-17T13:40:06.571Z,129.9
2023-04-17T13:45:01.163Z,157.1
2023-04-17T13:50:01.329Z,176.1
2023-04-17T13:55:06.273Z,189.0
2023-04-17T14:00:01.190Z,192.5
2023-04-17T14:05:01.427Z,169.4
2023-04-17T14:10:01.134Z,154.0
2023-04-17T14:15:01.191Z,155.7
2023-04-17T14:20:06.214Z,160.8
2023-04-17T14:25:01.275Z,187.2
2023-04-17T14:35:01.435Z,190.8
2023-04-17T14:40:01.350Z,171.8
2023-04-17T14:45:01.272Z,158.3
2023-04-17T14:50:01.179Z,135.6
2023-04-17T14:55:01.203Z,146.1
2023-04-17T15:05:02.451Z,158.3
2023-04-17T15:10:01.165Z,147.6
2023-04-17T15:15:06.377Z,155.5
2023-04-17T15:20:06.155Z,136.4
2023-04-17T15:25:01.367Z,130.4
2023-04-17T15:35:01.257Z,147.8
2023-04-17T15:40:01.331Z,141.0
2023-04-17T15:45:01.535Z,139.3
2023-04-17T15:50:02.264Z,150.7
2023-04-17T15:55:01.311Z,122.8
2023-04-17T16:00:01.725Z,136.2
2023-04-17T16:05:01.273Z,151.2
2023-04-17T16:10:02.390Z,158.1
2023-04-17T16:15:01.307Z,138.9
2023-04-17T16:20:01.229Z,154.9
2023-04-17T16:25:01.334Z,134.8
2023-04-17T16:30:01.210Z,124.7
2023-04-17T16:35:01.334Z,116.4
2023-04-17T16:40:01.291Z,117.7
2023-04-17T16:45:01.591Z,133.4
2023-04-17T16:50:01.182Z,148.8
2023-04-17T16:55:01.240Z,158.8
2023-04-17T17:00:02.249Z,166.4
2023-04-17T17:05:01.332Z,165.2
2023-04-17T17:10:01.169Z,149.7
2023-04-17T17:15:01.600Z,136.0
2023-04-17T17:20:06.170Z,125.3
2023-04-17T17:25:06.416Z,111.9
2023-04-17T17:30:01.139Z,103.7
2023-04-17T17:35:01.227Z,95.8
2023-04-17T17:40:01.219Z,87.1
2023-04-17T17:45:01.356Z,78.7
2023-04-17T17:55:01.195Z,74.6
2023-04-17T18:00:01.300Z,72.0
2023-04-17T18:05:01.435Z,71.7
2023-04-17T18:10:01.151Z,72.9
2023-04-17T18:15:01.246Z,71.7
2023-04-17T18:20:01.183Z,73.5
2023-04-17T18:25:01.227Z,75.6
2023-04-17T18:30:01.180Z,76.4
2023-04-17T18:35:01.490Z,80.1
2023-04-17T18:40:01.434Z,85.6
2023-04-17T18:50:01.635Z,96.5
2023-04-17T18:55:02.225Z,101.8
2023-04-17T19:05:01.291Z,107.4
2023-04-17T19:20:01.224Z,117.2
2023-04-17T19:25:01.190Z,143.0
2023-04-17T19:30:01.166Z,170.9
2023-04-17T19:35:01.198Z,207.7
2023-04-17T19:45:01.263Z,268.8
2023-04-17T19:50:01.067Z,270.2
2023-04-17T19:55:12.159Z,268.3
2023-04-17T20:00:01.058Z,247.1
2023-04-17T20:05:06.232Z,223.7
2023-04-17T20:10:01.060Z,193.9
2023-04-17T20:15:01.226Z,170.6
2023-04-17T20:20:01.166Z,145.0
2023-04-17T20:25:01.375Z,132.8
2023-04-17T20:30:01.078Z,127.9
2023-04-17T20:35:01.186Z,120.8
2023-04-17T20:40:01.352Z,114.1
2023-04-17T20:45:01.375Z,107.6
2023-04-17T20:50:01.224Z,97.9
2023-04-17T20:55:01.675Z,87.6
2023-04-17T21:00:01.229Z,88.7
2023-04-17T21:05:01.524Z,96.0
2023-04-17T21:10:01.275Z,104.2
2023-04-17T21:15:01.349Z,108.3
2023-04-17T21:20:02.309Z,133.0
2023-04-17T21:25:06.295Z,144.7
2023-04-17T21:30:01.145Z,160.8
2023-04-17T21:35:01.266Z,169.2
2023-04-17T21:40:06.286Z,166.4
2023-04-17T21:45:01.272Z,147.3
2023-04-17T21:50:02.301Z,133.6
2023-04-17T21:55:01.199Z,113.0
2023-04-17T22:00:06.163Z,101.1
2023-04-17T22:05:01.195Z,103.4
2023-04-17T22:10:01.128Z,114.6
2023-04-17T22:15:01.194Z,129.7
2023-04-17T22:20:01.153Z,130.2
2023-04-17T22:25:01.200Z,129.8
2023-04-17T22:30:01.141Z,132.6
2023-04-17T22:35:06.245Z,121.0
2023-04-17T22:40:01.138Z,108.7
2023-04-17T22:45:01.286Z,107.0
2023-04-17T22:50:01.171Z,103.0
2023-04-17T22:55:01.262Z,97.3
2023-04-17T23:00:01.388Z,89.6
2023-04-17T23:05:01.315Z,89.5
2023-04-17T23:10:01.081Z,83.8
2023-04-17T23:15:01.281Z,78.1
2023-04-17T23:20:01.293Z,74.6
2023-04-17T23:25:01.288Z,77.6
2023-04-17T23:35:01.264Z,95.6
2023-04-17T23:40:01.107Z,103.1
2023-04-17T23:45:01.295Z,115.4
2023-04-17T23:50:01.155Z,123.6
2023-04-17T23:55:01.451Z,88.5
